sensor_id;sensor_type;location;lat;lon;timestamp;pressure;altitude;pressure_sealevel;temperature;humidity
49194;BME280;35029;50.804;12.866;2022-10-31T00:00:57;98166.88;;;10.53;88.94
49194;BME280;35029;50.804;12.866;2022-10-31T00:03:23;98177.19;;;10.48;89.57
49194;BME280;35029;50.804;12.866;2022-10-31T00:05:49;98178.03;;;10.48;89.69
49194;BME280;35029;50.804;12.866;2022-10-31T00:08:17;98179.31;;;10.53;89.52
49194;BME280;35029;50.804;12.866;2022-10-31T00:10:43;98166.78;;;10.46;89.59
49194;BME280;35029;50.804;12.866;2022-10-31T00:13:10;98166.69;;;10.55;89.41
49194;BME280;35029;50.804;12.866;2022-10-31T00:15:38;98154.09;;;10.42;89.38
49194;BME280;35029;50.804;12.866;2022-10-31T00:18:04;98171.53;;;10.51;89.41
49194;BME280;35029;50.804;12.866;2022-10-31T00:20:31;98170.72;;;10.51;89.29
49194;BME280;35029;50.804;12.866;2022-10-31T00:23:00;98168.72;;;10.53;89.52
49194;BME280;35029;50.804;12.866;2022-10-31T00:25:28;98175.00;;;10.52;89.46
49194;BME280;35029;50.804;12.866;2022-10-31T00:27:55;98150.03;;;10.31;89.76
49194;BME280;35029;50.804;12.866;2022-10-31T00:30:21;98180.22;;;10.45;90.11
49194;BME280;35029;50.804;12.866;2022-10-31T00:32:46;98174.72;;;10.46;89.79
49194;BME280;35029;50.804;12.866;2022-10-31T00:35:12;98172.28;;;10.45;90.06
49194;BME280;35029;50.804;12.866;2022-10-31T00:37:37;98179.56;;;10.43;89.96
49194;BME280;35029;50.804;12.866;2022-10-31T00:40:03;98182.22;;;10.43;89.83
49194;BME280;35029;50.804;12.866;2022-10-31T00:42:29;98176.84;;;10.36;90.33
49194;BME280;35029;50.804;12.866;2022-10-31T00:44:56;98165.66;;;10.26;89.98
49194;BME280;35029;50.804;12.866;2022-10-31T00:47:23;98177.16;;;10.33;90.42
49194;BME280;35029;50.804;12.866;2022-10-31T00:49:48;98184.31;;;10.32;90.53
49194;BME280;35029;50.804;12.866;2022-10-31T00:52:14;98181.47;;;10.34;90.45
49194;BME280;35029;50.804;12.866;2022-10-31T00:54:40;98169.06;;;10.35;90.39
49194;BME280;35029;50.804;12.866;2022-10-31T00:57:05;98185.53;;;10.45;90.24
49194;BME280;35029;50.804;12.866;2022-10-31T00:59:31;98176.75;;;10.44;90.14
49194;BME280;35029;50.804;12.866;2022-10-31T01:01:56;98179.13;;;10.39;90.13
49194;BME280;35029;50.804;12.866;2022-10-31T01:04:22;98182.50;;;10.48;89.90
49194;BME280;35029;50.804;12.866;2022-10-31T01:06:48;98174.22;;;10.36;89.78
49194;BME280;35029;50.804;12.866;2022-10-31T01:09:15;98171.06;;;10.32;89.74
49194;BME280;35029;50.804;12.866;2022-10-31T01:11:41;98174.91;;;10.30;89.75
49194;BME280;35029;50.804;12.866;2022-10-31T01:14:08;98189.91;;;10.38;89.84
49194;BME280;35029;50.804;12.866;2022-10-31T01:16:34;98174.53;;;10.33;90.06
49194;BME280;35029;50.804;12.866;2022-10-31T01:19:07;98182.66;;;10.31;90.22
49194;BME280;35029;50.804;12.866;2022-10-31T01:21:32;98181.56;;;10.26;90.08
49194;BME280;35029;50.804;12.866;2022-10-31T01:23:58;98178.25;;;10.24;90.02
49194;BME280;35029;50.804;12.866;2022-10-31T01:26:27;98183.31;;;10.19;90.70
49194;BME280;35029;50.804;12.866;2022-10-31T01:28:58;98178.34;;;10.15;90.63
49194;BME280;35029;50.804;12.866;2022-10-31T01:31:27;98182.03;;;10.14;90.73
49194;BME280;35029;50.804;12.866;2022-10-31T01:33:54;98183.66;;;10.15;90.43
49194;BME280;35029;50.804;12.866;2022-10-31T01:36:35;98183.66;;;10.15;90.92
49194;BME280;35029;50.804;12.866;2022-10-31T01:39:06;98179.56;;;10.13;90.75
49194;BME280;35029;50.804;12.866;2022-10-31T01:41:50;98185.13;;;10.18;90.83
49194;BME280;35029;50.804;12.866;2022-10-31T01:46:48;98177.72;;;10.13;90.86
49194;BME280;35029;50.804;12.866;2022-10-31T01:49:20;98188.78;;;10.17;91.01
49194;BME280;35029;50.804;12.866;2022-10-31T01:51:54;98188.59;;;10.19;91.14
49194;BME280;35029;50.804;12.866;2022-10-31T01:54:25;98192.06;;;10.19;90.99
49194;BME280;35029;50.804;12.866;2022-10-31T01:56:55;98194.91;;;10.18;91.12
49194;BME280;35029;50.804;12.866;2022-10-31T01:59:24;98190.41;;;10.18;91.14
49194;BME280;35029;50.804;12.866;2022-10-31T02:01:52;98185.66;;;10.13;90.96
49194;BME280;35029;50.804;12.866;2022-10-31T02:04:19;98196.25;;;10.13;90.98
49194;BME280;35029;50.804;12.866;2022-10-31T02:06:51;98174.97;;;10.07;91.09
49194;BME280;35029;50.804;12.866;2022-10-31T02:09:19;98187.50;;;10.13;91.05
49194;BME280;35029;50.804;12.866;2022-10-31T02:11:51;98186.47;;;10.14;91.25
49194;BME280;35029;50.804;12.866;2022-10-31T02:14:18;98187.66;;;10.11;91.41
49194;BME280;35029;50.804;12.866;2022-10-31T02:16:46;98187.66;;;10.11;91.46
49194;BME280;35029;50.804;12.866;2022-10-31T02:19:19;98189.31;;;10.12;91.37
49194;BME280;35029;50.804;12.866;2022-10-31T02:21:59;98193.16;;;10.10;91.32
49194;BME280;35029;50.804;12.866;2022-10-31T02:27:14;98185.19;;;10.10;91.68
49194;BME280;35029;50.804;12.866;2022-10-31T02:30:06;98185.56;;;10.07;91.80
49194;BME280;35029;50.804;12.866;2022-10-31T02:32:46;98188.22;;;10.07;91.47
49194;BME280;35029;50.804;12.866;2022-10-31T02:40:53;98187.00;;;9.94;92.06
49194;BME280;35029;50.804;12.866;2022-10-31T02:43:39;98185.91;;;9.89;92.11
49194;BME280;35029;50.804;12.866;2022-10-31T02:46:36;98189.09;;;9.84;92.21
49194;BME280;35029;50.804;12.866;2022-10-31T02:49:07;98190.81;;;9.77;91.81
49194;BME280;35029;50.804;12.866;2022-10-31T02:51:38;98182.13;;;9.68;92.34
49194;BME280;35029;50.804;12.866;2022-10-31T02:54:04;98166.31;;;9.60;92.62
49194;BME280;35029;50.804;12.866;2022-10-31T02:56:30;98195.81;;;9.72;92.78
49194;BME280;35029;50.804;12.866;2022-10-31T02:59:00;98179.00;;;9.64;92.79
49194;BME280;35029;50.804;12.866;2022-10-31T03:07:08;98189.72;;;9.71;92.62
49194;BME280;35029;50.804;12.866;2022-10-31T03:15:22;98185.66;;;9.60;93.13
49194;BME280;35029;50.804;12.866;2022-10-31T03:17:58;98172.97;;;9.56;93.10
49194;BME280;35029;50.804;12.866;2022-10-31T03:20:30;98192.25;;;9.64;92.64
49194;BME280;35029;50.804;12.866;2022-10-31T03:22:57;98196.78;;;9.56;92.84
49194;BME280;35029;50.804;12.866;2022-10-31T03:25:23;98195.94;;;9.55;92.34
49194;BME280;35029;50.804;12.866;2022-10-31T03:27:54;98187.59;;;9.43;93.02
49194;BME280;35029;50.804;12.866;2022-10-31T03:30:32;98203.78;;;9.48;93.07
49194;BME280;35029;50.804;12.866;2022-10-31T03:33:04;98197.97;;;9.53;93.05
49194;BME280;35029;50.804;12.866;2022-10-31T03:35:33;98188.63;;;9.42;92.84
49194;BME280;35029;50.804;12.866;2022-10-31T03:38:01;98206.59;;;9.47;92.86
49194;BME280;35029;50.804;12.866;2022-10-31T03:40:30;98210.59;;;9.43;92.44
49194;BME280;35029;50.804;12.866;2022-10-31T03:43:01;98213.97;;;9.37;92.79
49194;BME280;35029;50.804;12.866;2022-10-31T03:45:32;98214.41;;;9.40;93.09
49194;BME280;35029;50.804;12.866;2022-10-31T03:48:02;98205.59;;;9.25;92.77
49194;BME280;35029;50.804;12.866;2022-10-31T03:50:39;98215.38;;;9.24;93.21
49194;BME280;35029;50.804;12.866;2022-10-31T03:53:11;98214.34;;;9.25;93.93
49194;BME280;35029;50.804;12.866;2022-10-31T03:55:49;98215.38;;;9.24;94.15
49194;BME280;35029;50.804;12.866;2022-10-31T04:01:26;98220.47;;;9.26;93.88
49194;BME280;35029;50.804;12.866;2022-10-31T04:03:56;98210.75;;;9.18;93.45
49194;BME280;35029;50.804;12.866;2022-10-31T04:06:22;98211.38;;;9.28;93.94
49194;BME280;35029;50.804;12.866;2022-10-31T04:08:54;98215.81;;;9.28;93.71
49194;BME280;35029;50.804;12.866;2022-10-31T04:11:27;98215.81;;;9.28;93.93
49194;BME280;35029;50.804;12.866;2022-10-31T04:14:25;98205.06;;;9.29;94.10
49194;BME280;35029;50.804;12.866;2022-10-31T04:16:53;98192.56;;;9.23;94.35
49194;BME280;35029;50.804;12.866;2022-10-31T04:19:32;98206.34;;;9.34;93.94
49194;BME280;35029;50.804;12.866;2022-10-31T04:21:58;98209.38;;;9.30;94.84
49194;BME280;35029;50.804;12.866;2022-10-31T04:24:24;98196.84;;;9.24;94.73
49194;BME280;35029;50.804;12.866;2022-10-31T04:26:49;98211.06;;;9.23;94.74
49194;BME280;35029;50.804;12.866;2022-10-31T04:29:15;98214.53;;;9.24;94.60
49194;BME280;35029;50.804;12.866;2022-10-31T04:31:41;98213.06;;;9.21;95.43
49194;BME280;35029;50.804;12.866;2022-10-31T04:34:06;98212.59;;;9.18;95.19
49194;BME280;35029;50.804;12.866;2022-10-31T04:36:32;98205.53;;;9.10;95.13
49194;BME280;35029;50.804;12.866;2022-10-31T04:38:58;98214.59;;;9.16;95.47
49194;BME280;35029;50.804;12.866;2022-10-31T04:41:37;98211.94;;;9.16;94.68
49194;BME280;35029;50.804;12.866;2022-10-31T04:44:11;98222.22;;;9.10;94.85
49194;BME280;35029;50.804;12.866;2022-10-31T04:46:36;98220.09;;;9.06;96.18
49194;BME280;35029;50.804;12.866;2022-10-31T04:49:02;98207.28;;;8.94;95.93
49194;BME280;35029;50.804;12.866;2022-10-31T04:51:29;98213.50;;;9.02;96.00
49194;BME280;35029;50.804;12.866;2022-10-31T04:53:55;98210.03;;;9.01;96.15
49194;BME280;35029;50.804;12.866;2022-10-31T04:56:26;98218.75;;;9.10;95.94
49194;BME280;35029;50.804;12.866;2022-10-31T04:58:56;98208.56;;;8.99;96.32
49194;BME280;35029;50.804;12.866;2022-10-31T05:01:24;98210.03;;;9.01;96.00
49194;BME280;35029;50.804;12.866;2022-10-31T05:03:49;98195.69;;;8.95;95.99
49194;BME280;35029;50.804;12.866;2022-10-31T05:06:15;98196.69;;;8.94;95.96
49194;BME280;35029;50.804;12.866;2022-10-31T05:08:42;98214.69;;;8.99;96.29
49194;BME280;35029;50.804;12.866;2022-10-31T05:11:09;98214.84;;;8.98;96.17
49194;BME280;35029;50.804;12.866;2022-10-31T05:13:36;98213.72;;;8.92;96.59
49194;BME280;35029;50.804;12.866;2022-10-31T05:16:24;98210.47;;;8.82;96.95
49194;BME280;35029;50.804;12.866;2022-10-31T05:19:09;98216.69;;;8.89;97.16
49194;BME280;35029;50.804;12.866;2022-10-31T05:22:03;98216.25;;;8.85;96.26
49194;BME280;35029;50.804;12.866;2022-10-31T05:24:32;98217.22;;;8.84;96.46
49194;BME280;35029;50.804;12.866;2022-10-31T05:26:57;98224.84;;;8.79;96.22
49194;BME280;35029;50.804;12.866;2022-10-31T05:29:23;98210.34;;;8.67;96.83
49194;BME280;35029;50.804;12.866;2022-10-31T05:31:48;98217.78;;;8.71;96.63
49194;BME280;35029;50.804;12.866;2022-10-31T05:34:34;98225.22;;;8.68;96.95
49194;BME280;35029;50.804;12.866;2022-10-31T05:37:19;98227.19;;;8.66;97.26
49194;BME280;35029;50.804;12.866;2022-10-31T05:39:45;98228.22;;;8.65;97.01
49194;BME280;35029;50.804;12.866;2022-10-31T05:42:14;98225.41;;;8.66;97.06
49194;BME280;35029;50.804;12.866;2022-10-31T05:44:39;98237.13;;;8.63;96.84
49194;BME280;35029;50.804;12.866;2022-10-31T05:47:25;98227.19;;;8.66;96.51
49194;BME280;35029;50.804;12.866;2022-10-31T05:50:09;98245.38;;;8.69;96.87
49194;BME280;35029;50.804;12.866;2022-10-31T05:52:46;98231.50;;;8.67;96.92
49194;BME280;35029;50.804;12.866;2022-10-31T05:55:25;98230.69;;;8.66;96.71
49194;BME280;35029;50.804;12.866;2022-10-31T05:58:10;98235.13;;;8.66;96.82
49194;BME280;35029;50.804;12.866;2022-10-31T06:00:38;98224.59;;;8.57;97.25
49194;BME280;35029;50.804;12.866;2022-10-31T06:03:08;98244.38;;;8.70;96.83
49194;BME280;35029;50.804;12.866;2022-10-31T06:06:00;98234.19;;;8.58;97.08
49194;BME280;35029;50.804;12.866;2022-10-31T06:08:33;98245.69;;;8.66;97.40
49194;BME280;35029;50.804;12.866;2022-10-31T06:11:04;98232.03;;;8.62;96.97
49194;BME280;35029;50.804;12.866;2022-10-31T06:13:48;98245.38;;;8.69;96.72
49194;BME280;35029;50.804;12.866;2022-10-31T06:16:29;98245.56;;;8.67;97.45
49194;BME280;35029;50.804;12.866;2022-10-31T06:19:00;98236.63;;;8.68;97.13
49194;BME280;35029;50.804;12.866;2022-10-31T06:21:26;98246.00;;;8.79;96.88
49194;BME280;35029;50.804;12.866;2022-10-31T06:23:51;98242.72;;;8.77;97.11
49194;BME280;35029;50.804;12.866;2022-10-31T06:26:37;98253.28;;;8.77;97.77
49194;BME280;35029;50.804;12.866;2022-10-31T06:29:03;98245.84;;;8.72;97.62
49194;BME280;35029;50.804;12.866;2022-10-31T06:31:45;98252.44;;;8.76;97.48
49194;BME280;35029;50.804;12.866;2022-10-31T06:34:11;98255.75;;;8.78;97.46
49194;BME280;35029;50.804;12.866;2022-10-31T06:36:36;98253.28;;;8.77;96.76
49194;BME280;35029;50.804;12.866;2022-10-31T06:39:04;98258.88;;;8.74;97.48
49194;BME280;35029;50.804;12.866;2022-10-31T06:41:29;98258.22;;;8.80;97.19
49194;BME280;35029;50.804;12.866;2022-10-31T06:43:55;98235.63;;;8.69;97.43
49194;BME280;35029;50.804;12.866;2022-10-31T06:46:53;98259.53;;;8.84;97.56
49194;BME280;35029;50.804;12.866;2022-10-31T06:49:42;98264.81;;;8.84;97.03
49194;BME280;35029;50.804;12.866;2022-10-31T06:52:12;98258.41;;;8.78;97.99
49194;BME280;35029;50.804;12.866;2022-10-31T06:54:37;98260.34;;;8.85;98.34
49194;BME280;35029;50.804;12.866;2022-10-31T06:57:04;98250.06;;;8.90;97.67
49194;BME280;35029;50.804;12.866;2022-10-31T06:59:31;98264.91;;;8.99;98.12
49194;BME280;35029;50.804;12.866;2022-10-31T07:02:23;98271.50;;;9.03;98.11
49194;BME280;35029;50.804;12.866;2022-10-31T07:04:50;98270.16;;;9.07;98.56
49194;BME280;35029;50.804;12.866;2022-10-31T07:07:16;98263.22;;;9.06;98.37
49194;BME280;35029;50.804;12.866;2022-10-31T07:09:44;98277.56;;;9.12;98.65
49194;BME280;35029;50.804;12.866;2022-10-31T07:12:13;98276.06;;;9.18;98.59
49194;BME280;35029;50.804;12.866;2022-10-31T07:14:46;98285.63;;;9.19;98.77
49194;BME280;35029;50.804;12.866;2022-10-31T07:17:11;98281.66;;;9.23;99.28
49194;BME280;35029;50.804;12.866;2022-10-31T07:19:40;98288.91;;;9.29;99.42
49194;BME280;35029;50.804;12.866;2022-10-31T07:22:05;98282.91;;;9.35;99.30
49194;BME280;35029;50.804;12.866;2022-10-31T07:24:32;98269.72;;;9.27;99.27
49194;BME280;35029;50.804;12.866;2022-10-31T07:27:27;98288.63;;;9.47;99.62
49194;BME280;35029;50.804;12.866;2022-10-31T07:29:52;98298.81;;;9.58;99.14
49194;BME280;35029;50.804;12.866;2022-10-31T07:32:18;98292.47;;;9.68;98.97
49194;BME280;35029;50.804;12.866;2022-10-31T07:34:52;98289.75;;;9.76;99.00
49194;BME280;35029;50.804;12.866;2022-10-31T07:37:22;98292.34;;;9.84;99.24
49194;BME280;35029;50.804;12.866;2022-10-31T07:39:48;98297.59;;;9.92;99.19
49194;BME280;35029;50.804;12.866;2022-10-31T07:42:13;98294.88;;;10.01;99.32
49194;BME280;35029;50.804;12.866;2022-10-31T07:44:42;98296.94;;;10.13;99.19
49194;BME280;35029;50.804;12.866;2022-10-31T07:47:27;98297.16;;;10.27;99.00
49194;BME280;35029;50.804;12.866;2022-10-31T07:50:27;98295.75;;;10.39;99.14
49194;BME280;35029;50.804;12.866;2022-10-31T07:53:12;98270.34;;;10.45;98.87
49194;BME280;35029;50.804;12.866;2022-10-31T07:55:48;98296.59;;;10.70;99.24
49194;BME280;35029;50.804;12.866;2022-10-31T07:58:15;98288.44;;;10.86;99.26
49194;BME280;35029;50.804;12.866;2022-10-31T08:00:43;98277.28;;;10.91;99.50
49194;BME280;35029;50.804;12.866;2022-10-31T08:03:15;98289.41;;;11.15;99.52
49194;BME280;35029;50.804;12.866;2022-10-31T08:05:59;98284.34;;;11.35;99.65
49194;BME280;35029;50.804;12.866;2022-10-31T08:08:43;98274.16;;;11.54;99.66
49194;BME280;35029;50.804;12.866;2022-10-31T08:11:09;98276.09;;;11.66;99.50
49194;BME280;35029;50.804;12.866;2022-10-31T08:13:35;98273.13;;;11.76;99.17
49194;BME280;35029;50.804;12.866;2022-10-31T08:16:01;98264.03;;;11.86;99.43
49194;BME280;35029;50.804;12.866;2022-10-31T08:18:31;98275.25;;;12.03;99.48
49194;BME280;35029;50.804;12.866;2022-10-31T08:20:57;98281.69;;;12.15;99.50
49194;BME280;35029;50.804;12.866;2022-10-31T08:23:22;98273.38;;;12.25;99.91
49194;BME280;35029;50.804;12.866;2022-10-31T08:25:48;98272.78;;;12.29;99.43
49194;BME280;35029;50.804;12.866;2022-10-31T08:28:15;98273.88;;;12.42;99.87
49194;BME280;35029;50.804;12.866;2022-10-31T08:30:42;98265.34;;;12.46;99.57
49194;BME280;35029;50.804;12.866;2022-10-31T08:33:37;98275.53;;;12.71;99.61
49194;BME280;35029;50.804;12.866;2022-10-31T08:36:21;98265.16;;;12.90;99.40
49194;BME280;35029;50.804;12.866;2022-10-31T08:38:55;98260.09;;;13.01;99.67
49194;BME280;35029;50.804;12.866;2022-10-31T08:41:21;98275.34;;;13.21;99.78
49194;BME280;35029;50.804;12.866;2022-10-31T08:43:47;98270.72;;;13.37;99.41
49194;BME280;35029;50.804;12.866;2022-10-31T08:46:14;98270.13;;;13.48;98.92
49194;BME280;35029;50.804;12.866;2022-10-31T08:48:41;98259.06;;;13.51;98.22
49194;BME280;35029;50.804;12.866;2022-10-31T08:51:08;98256.22;;;13.66;97.50
49194;BME280;35029;50.804;12.866;2022-10-31T08:53:34;98265.47;;;13.83;96.88
49194;BME280;35029;50.804;12.866;2022-10-31T08:56:23;98254.44;;;13.86;95.04
49194;BME280;35029;50.804;12.866;2022-10-31T08:58:49;98270.63;;;14.05;93.59
49194;BME280;35029;50.804;12.866;2022-10-31T09:01:15;98263.03;;;14.02;92.55
49194;BME280;35029;50.804;12.866;2022-10-31T09:03:42;98272.06;;;14.21;91.51
49194;BME280;35029;50.804;12.866;2022-10-31T09:06:09;98259.16;;;14.18;90.63
49194;BME280;35029;50.804;12.866;2022-10-31T09:08:36;98270.00;;;14.36;90.00
49194;BME280;35029;50.804;12.866;2022-10-31T09:11:03;98255.84;;;14.23;89.04
49194;BME280;35029;50.804;12.866;2022-10-31T09:13:48;98273.06;;;14.40;87.39
49194;BME280;35029;50.804;12.866;2022-10-31T09:16:33;98260.16;;;14.37;86.04
49194;BME280;35029;50.804;12.866;2022-10-31T09:18:59;98273.28;;;14.45;85.34
49194;BME280;35029;50.804;12.866;2022-10-31T09:21:28;98271.22;;;14.47;83.82
49194;BME280;35029;50.804;12.866;2022-10-31T09:23:57;98274.88;;;14.53;83.71
49194;BME280;35029;50.804;12.866;2022-10-31T09:26:23;98261.75;;;14.51;83.83
49194;BME280;35029;50.804;12.866;2022-10-31T09:28:58;98269.56;;;14.66;83.32
49194;BME280;35029;50.804;12.866;2022-10-31T09:31:28;98268.13;;;14.70;81.94
49194;BME280;35029;50.804;12.866;2022-10-31T09:34:02;98271.59;;;14.78;79.22
49194;BME280;35029;50.804;12.866;2022-10-31T09:36:30;98269.94;;;14.83;79.73
49194;BME280;35029;50.804;12.866;2022-10-31T09:38:56;98256.97;;;14.87;79.79
49194;BME280;35029;50.804;12.866;2022-10-31T09:42:02;98270.72;;;14.97;79.72
49194;BME280;35029;50.804;12.866;2022-10-31T09:44:37;98262.03;;;15.09;80.03
49194;BME280;35029;50.804;12.866;2022-10-31T09:47:21;98261.22;;;15.15;79.59
49194;BME280;35029;50.804;12.866;2022-10-31T09:50:22;98261.56;;;15.25;78.63
49194;BME280;35029;50.804;12.866;2022-10-31T09:52:58;98258.03;;;15.38;75.99
49194;BME280;35029;50.804;12.866;2022-10-31T09:55:46;98259.00;;;15.44;75.89
49194;BME280;35029;50.804;12.866;2022-10-31T09:58:23;98263.88;;;15.53;76.01
49194;BME280;35029;50.804;12.866;2022-10-31T10:00:50;98260.56;;;15.58;74.96
49194;BME280;35029;50.804;12.866;2022-10-31T10:03:36;98263.19;;;15.65;75.25
49194;BME280;35029;50.804;12.866;2022-10-31T10:06:27;98265.38;;;15.75;72.98
49194;BME280;35029;50.804;12.866;2022-10-31T10:09:24;98256.34;;;15.76;72.54
49194;BME280;35029;50.804;12.866;2022-10-31T10:12:48;98262.44;;;15.89;73.22
49194;BME280;35029;50.804;12.866;2022-10-31T10:15:39;98252.09;;;16.00;72.49
49194;BME280;35029;50.804;12.866;2022-10-31T10:18:16;98251.00;;;16.08;72.76
49194;BME280;35029;50.804;12.866;2022-10-31T10:26:18;98246.53;;;16.27;71.75
49194;BME280;35029;50.804;12.866;2022-10-31T10:28:51;98244.38;;;16.35;71.58
49194;BME280;35029;50.804;12.866;2022-10-31T10:31:24;98244.47;;;16.47;70.16
49194;BME280;35029;50.804;12.866;2022-10-31T10:34:13;98225.28;;;16.50;70.85
49194;BME280;35029;50.804;12.866;2022-10-31T10:36:49;98230.13;;;16.60;71.56
49194;BME280;35029;50.804;12.866;2022-10-31T10:39:28;98226.72;;;16.71;71.24
49194;BME280;35029;50.804;12.866;2022-10-31T10:41:57;98228.28;;;16.79;71.59
49194;BME280;35029;50.804;12.866;2022-10-31T10:44:54;98226.06;;;16.95;70.31
49194;BME280;35029;50.804;12.866;2022-10-31T10:47:44;98225.09;;;17.08;68.55
49194;BME280;35029;50.804;12.866;2022-10-31T10:50:21;98216.50;;;17.17;69.70
49194;BME280;35029;50.804;12.866;2022-10-31T10:58:48;98206.88;;;17.28;68.49
49194;BME280;35029;50.804;12.866;2022-10-31T11:01:14;98207.91;;;17.27;67.64
49194;BME280;35029;50.804;12.866;2022-10-31T11:03:41;98198.75;;;17.35;68.56
49194;BME280;35029;50.804;12.866;2022-10-31T11:06:17;98200.88;;;17.45;66.16
49194;BME280;35029;50.804;12.866;2022-10-31T11:08:48;98203.97;;;17.60;65.39
49194;BME280;35029;50.804;12.866;2022-10-31T11:11:24;98203.41;;;17.70;66.13
49194;BME280;35029;50.804;12.866;2022-10-31T11:13:57;98195.69;;;17.73;66.98
49194;BME280;35029;50.804;12.866;2022-10-31T11:16:36;98196.88;;;17.78;67.17
49194;BME280;35029;50.804;12.866;2022-10-31T11:19:29;98192.22;;;17.85;64.47
49194;BME280;35029;50.804;12.866;2022-10-31T11:22:06;98184.69;;;17.94;65.33
49194;BME280;35029;50.804;12.866;2022-10-31T11:24:37;98183.53;;;18.01;64.44
49194;BME280;35029;50.804;12.866;2022-10-31T11:30:36;98172.66;;;17.96;65.97
49194;BME280;35029;50.804;12.866;2022-10-31T11:35:46;98158.78;;;18.11;65.00
49194;BME280;35029;50.804;12.866;2022-10-31T11:38:17;98155.88;;;18.13;65.71
49194;BME280;35029;50.804;12.866;2022-10-31T11:40:59;98162.53;;;18.22;65.21
49194;BME280;35029;50.804;12.866;2022-10-31T11:43:26;98149.78;;;18.17;65.56
49194;BME280;35029;50.804;12.866;2022-10-31T11:45:52;98146.31;;;18.17;65.36
49194;BME280;35029;50.804;12.866;2022-10-31T11:48:22;98150.41;;;18.19;65.33
49194;BME280;35029;50.804;12.866;2022-10-31T11:50:50;98143.63;;;18.17;64.16
49194;BME280;35029;50.804;12.866;2022-10-31T11:53:19;98138.38;;;18.22;63.98
49194;BME280;35029;50.804;12.866;2022-10-31T11:55:46;98139.66;;;18.19;64.28
49194;BME280;35029;50.804;12.866;2022-10-31T11:58:24;98120.06;;;18.07;65.25
49194;BME280;35029;50.804;12.866;2022-10-31T12:00:52;98135.81;;;18.15;63.52
49194;BME280;35029;50.804;12.866;2022-10-31T12:03:54;98130.09;;;18.12;64.48
49194;BME280;35029;50.804;12.866;2022-10-31T12:06:29;98125.88;;;18.16;64.21
49194;BME280;35029;50.804;12.866;2022-10-31T12:08:56;98129.97;;;18.18;62.93
49194;BME280;35029;50.804;12.866;2022-10-31T12:22:17;98111.31;;;18.12;65.87
49194;BME280;35029;50.804;12.866;2022-10-31T12:45:56;98083.56;;;18.18;66.32
49194;BME280;35029;50.804;12.866;2022-10-31T12:51:37;98079.22;;;18.29;65.81
49194;BME280;35029;50.804;12.866;2022-10-31T12:59:53;98077.94;;;18.31;65.31
49194;BME280;35029;50.804;12.866;2022-10-31T13:02:22;98063.22;;;18.34;65.28
49194;BME280;35029;50.804;12.866;2022-10-31T13:05:22;98064.59;;;18.36;65.52
49194;BME280;35029;50.804;12.866;2022-10-31T13:11:24;98059.69;;;18.45;65.26
49194;BME280;35029;50.804;12.866;2022-10-31T13:16:46;98060.59;;;18.51;64.35
49194;BME280;35029;50.804;12.866;2022-10-31T13:19:41;98061.50;;;18.56;64.88
49194;BME280;35029;50.804;12.866;2022-10-31T13:22:21;98051.13;;;18.60;63.87
49194;BME280;35029;50.804;12.866;2022-10-31T13:24:58;98051.13;;;18.60;64.55
49194;BME280;35029;50.804;12.866;2022-10-31T13:27:56;98050.97;;;18.67;64.99
49194;BME280;35029;50.804;12.866;2022-10-31T13:30:24;98050.47;;;18.70;64.28
49194;BME280;35029;50.804;12.866;2022-10-31T13:33:14;98049.75;;;18.74;63.93
49194;BME280;35029;50.804;12.866;2022-10-31T13:36:45;98043.38;;;18.64;62.41
49194;BME280;35029;50.804;12.866;2022-10-31T13:44:35;98047.75;;;18.53;62.92
49194;BME280;35029;50.804;12.866;2022-10-31T13:50:32;98040.06;;;18.45;64.53
49194;BME280;35029;50.804;12.866;2022-10-31T13:53:12;98047.19;;;18.39;64.50
49194;BME280;35029;50.804;12.866;2022-10-31T13:55:46;98041.53;;;18.23;65.45
49194;BME280;35029;50.804;12.866;2022-10-31T13:58:26;98040.53;;;18.13;66.64
49194;BME280;35029;50.804;12.866;2022-10-31T14:01:19;98037.06;;;18.00;66.99
49194;BME280;35029;50.804;12.866;2022-10-31T14:03:54;98034.34;;;17.88;67.51
49194;BME280;35029;50.804;12.866;2022-10-31T14:06:22;98040.19;;;17.73;68.82
49194;BME280;35029;50.804;12.866;2022-10-31T14:08:59;98030.06;;;17.64;69.87
49194;BME280;35029;50.804;12.866;2022-10-31T14:11:26;98041.38;;;17.54;70.79
49194;BME280;35029;50.804;12.866;2022-10-31T14:13:54;98033.56;;;17.40;71.84
49194;BME280;35029;50.804;12.866;2022-10-31T14:16:26;98028.53;;;17.32;73.22
49194;BME280;35029;50.804;12.866;2022-10-31T14:19:05;98020.84;;;17.12;73.96
49194;BME280;35029;50.804;12.866;2022-10-31T14:21:38;98032.38;;;17.13;74.83
49194;BME280;35029;50.804;12.866;2022-10-31T14:24:14;98017.72;;;16.85;76.21
49194;BME280;35029;50.804;12.866;2022-10-31T14:26:54;98019.69;;;16.78;77.39
49194;BME280;35029;50.804;12.866;2022-10-31T14:29:28;98020.72;;;16.77;78.08
49194;BME280;35029;50.804;12.866;2022-10-31T14:45:15;98001.84;;;16.29;83.83
49194;BME280;35029;50.804;12.866;2022-10-31T14:48:06;97997.63;;;16.21;84.26
49194;BME280;35029;50.804;12.866;2022-10-31T14:50:54;97980.94;;;16.08;84.92
49194;BME280;35029;50.804;12.866;2022-10-31T14:53:25;97981.34;;;16.04;85.78
49194;BME280;35029;50.804;12.866;2022-10-31T14:55:53;97983.53;;;15.96;86.19
49194;BME280;35029;50.804;12.866;2022-10-31T14:58:22;97970.53;;;15.81;87.06
49194;BME280;35029;50.804;12.866;2022-10-31T15:00:53;97978.94;;;15.84;87.40
49194;BME280;35029;50.804;12.866;2022-10-31T15:03:45;97981.06;;;15.76;88.19
49194;BME280;35029;50.804;12.866;2022-10-31T15:06:13;97980.69;;;15.72;88.90
49194;BME280;35029;50.804;12.866;2022-10-31T15:08:44;97976.44;;;15.64;89.60
49194;BME280;35029;50.804;12.866;2022-10-31T15:13:48;97976.81;;;15.49;90.45
49194;BME280;35029;50.804;12.866;2022-10-31T15:16:22;97963.59;;;15.36;90.96
49194;BME280;35029;50.804;12.866;2022-10-31T15:18:52;97975.97;;;15.30;91.41